sensor_id;sensor_type;location;lat;lon;timestamp;P1;durP1;ratioP1;P2;durP2;ratioP2
9260;SDS011;4667;42.726;23.252;2023-02-14T00:02:05;11.10;;;8.23;;
9260;SDS011;4667;42.726;23.252;2023-02-14T00:04:32;10.10;;;7.47;;
9260;SDS011;4667;42.726;23.252;2023-02-14T00:07:02;13.47;;;9.10;;
9260;SDS011;4667;42.726;23.252;2023-02-14T00:09:29;16.30;;;9.53;;
9260;SDS011;4667;42.726;23.252;2023-02-14T00:11:57;14.17;;;9.73;;
9260;SDS011;4667;42.726;23.252;2023-02-14T00:14:24;13.13;;;7.17;;
9260;SDS011;4667;42.726;23.252;2023-02-14T00:17:08;13.57;;;9.37;;
9260;SDS011;4667;42.726;23.252;2023-02-14T00:19:35;12.43;;;8.93;;
9260;SDS011;4667;42.726;23.252;2023-02-14T00:22:02;13.53;;;8.60;;
9260;SDS011;4667;42.726;23.252;2023-02-14T00:24:29;13.40;;;8.37;;
9260;SDS011;4667;42.726;23.252;2023-02-14T00:26:58;15.40;;;8.70;;
9260;SDS011;4667;42.726;23.252;2023-02-14T00:29:26;13.07;;;9.23;;
9260;SDS011;4667;42.726;23.252;2023-02-14T00:31:54;13.73;;;8.00;;
9260;SDS011;4667;42.726;23.252;2023-02-14T00:34:21;12.70;;;8.17;;
9260;SDS011;4667;42.726;23.252;2023-02-14T00:36:48;13.97;;;9.07;;
9260;SDS011;4667;42.726;23.252;2023-02-14T00:39:15;11.40;;;8.67;;
9260;SDS011;4667;42.726;23.252;2023-02-14T00:41:44;13.90;;;9.23;;
9260;SDS011;4667;42.726;23.252;2023-02-14T00:44:13;15.70;;;9.50;;
9260;SDS011;4667;42.726;23.252;2023-02-14T00:46:39;13.13;;;8.53;;
9260;SDS011;4667;42.726;23.252;2023-02-14T00:49:06;19.90;;;8.73;;
9260;SDS011;4667;42.726;23.252;2023-02-14T00:51:33;12.77;;;8.73;;
9260;SDS011;4667;42.726;23.252;2023-02-14T00:54:01;15.30;;;8.77;;
9260;SDS011;4667;42.726;23.252;2023-02-14T00:56:28;15.07;;;8.83;;
9260;SDS011;4667;42.726;23.252;2023-02-14T00:58:55;13.73;;;7.93;;
9260;SDS011;4667;42.726;23.252;2023-02-14T01:01:23;18.27;;;9.33;;
9260;SDS011;4667;42.726;23.252;2023-02-14T01:03:50;16.07;;;8.87;;
9260;SDS011;4667;42.726;23.252;2023-02-14T01:06:17;12.03;;;8.33;;
9260;SDS011;4667;42.726;23.252;2023-02-14T01:08:44;15.53;;;9.73;;
9260;SDS011;4667;42.726;23.252;2023-02-14T01:11:12;17.53;;;9.47;;
9260;SDS011;4667;42.726;23.252;2023-02-14T01:13:40;10.13;;;8.00;;
9260;SDS011;4667;42.726;23.252;2023-02-14T01:16:10;18.67;;;9.67;;
9260;SDS011;4667;42.726;23.252;2023-02-14T01:18:39;16.70;;;9.30;;
9260;SDS011;4667;42.726;23.252;2023-02-14T01:21:10;12.53;;;9.50;;
9260;SDS011;4667;42.726;23.252;2023-02-14T01:23:38;12.37;;;8.43;;
9260;SDS011;4667;42.726;23.252;2023-02-14T01:26:05;10.73;;;7.50;;
9260;SDS011;4667;42.726;23.252;2023-02-14T01:28:33;13.23;;;8.60;;
9260;SDS011;4667;42.726;23.252;2023-02-14T01:31:04;12.57;;;9.00;;
9260;SDS011;4667;42.726;23.252;2023-02-14T01:33:35;13.03;;;9.27;;
9260;SDS011;4667;42.726;23.252;2023-02-14T01:36:04;16.67;;;8.53;;
9260;SDS011;4667;42.726;23.252;2023-02-14T01:38:32;18.80;;;8.63;;
9260;SDS011;4667;42.726;23.252;2023-02-14T01:40:58;13.97;;;7.60;;
9260;SDS011;4667;42.726;23.252;2023-02-14T01:43:25;11.20;;;8.17;;
9260;SDS011;4667;42.726;23.252;2023-02-14T01:45:52;16.50;;;8.47;;
9260;SDS011;4667;42.726;23.252;2023-02-14T01:48:20;11.37;;;6.90;;
9260;SDS011;4667;42.726;23.252;2023-02-14T01:50:49;15.20;;;10.03;;
9260;SDS011;4667;42.726;23.252;2023-02-14T01:53:22;13.00;;;7.67;;
9260;SDS011;4667;42.726;23.252;2023-02-14T01:55:53;10.23;;;8.00;;
9260;SDS011;4667;42.726;23.252;2023-02-14T01:58:25;11.60;;;8.23;;
9260;SDS011;4667;42.726;23.252;2023-02-14T02:00:55;13.77;;;9.23;;
9260;SDS011;4667;42.726;23.252;2023-02-14T02:03:21;15.10;;;8.60;;
9260;SDS011;4667;42.726;23.252;2023-02-14T02:05:50;17.07;;;10.83;;
9260;SDS011;4667;42.726;23.252;2023-02-14T02:08:22;15.30;;;9.83;;
9260;SDS011;4667;42.726;23.252;2023-02-14T02:10:49;14.77;;;9.57;;
9260;SDS011;4667;42.726;23.252;2023-02-14T02:13:16;11.33;;;7.93;;
9260;SDS011;4667;42.726;23.252;2023-02-14T02:15:47;11.70;;;7.67;;
9260;SDS011;4667;42.726;23.252;2023-02-14T02:18:22;11.90;;;9.53;;
9260;SDS011;4667;42.726;23.252;2023-02-14T02:21:18;13.60;;;8.77;;
9260;SDS011;4667;42.726;23.252;2023-02-14T02:24:13;14.57;;;9.00;;
9260;SDS011;4667;42.726;23.252;2023-02-14T02:26:54;11.90;;;9.40;;
9260;SDS011;4667;42.726;23.252;2023-02-14T02:29:38;14.93;;;8.73;;
9260;SDS011;4667;42.726;23.252;2023-02-14T02:32:58;14.47;;;9.10;;
9260;SDS011;4667;42.726;23.252;2023-02-14T02:35:53;15.63;;;9.27;;
9260;SDS011;4667;42.726;23.252;2023-02-14T02:38:44;10.30;;;9.20;;
9260;SDS011;4667;42.726;23.252;2023-02-14T02:41:31;11.03;;;8.23;;
9260;SDS011;4667;42.726;23.252;2023-02-14T02:44:14;18.83;;;9.93;;
9260;SDS011;4667;42.726;23.252;2023-02-14T02:46:45;11.43;;;8.20;;
9260;SDS011;4667;42.726;23.252;2023-02-14T02:49:30;18.20;;;9.77;;
9260;SDS011;4667;42.726;23.252;2023-02-14T02:52:23;17.90;;;7.70;;
9260;SDS011;4667;42.726;23.252;2023-02-14T02:55:12;13.10;;;8.43;;
9260;SDS011;4667;42.726;23.252;2023-02-14T02:57:44;14.07;;;8.20;;
9260;SDS011;4667;42.726;23.252;2023-02-14T03:00:13;14.10;;;9.77;;
9260;SDS011;4667;42.726;23.252;2023-02-14T03:02:42;15.27;;;9.07;;
9260;SDS011;4667;42.726;23.252;2023-02-14T03:05:30;11.10;;;8.33;;
9260;SDS011;4667;42.726;23.252;2023-02-14T03:08:01;13.10;;;8.20;;
9260;SDS011;4667;42.726;23.252;2023-02-14T03:10:29;13.87;;;7.77;;
9260;SDS011;4667;42.726;23.252;2023-02-14T03:16:01;12.97;;;7.60;;
9260;SDS011;4667;42.726;23.252;2023-02-14T03:18:40;13.00;;;8.77;;
9260;SDS011;4667;42.726;23.252;2023-02-14T03:21:33;13.83;;;8.27;;
9260;SDS011;4667;42.726;23.252;2023-02-14T03:24:10;16.70;;;9.40;;
9260;SDS011;4667;42.726;23.252;2023-02-14T03:26:46;16.27;;;7.77;;
9260;SDS011;4667;42.726;23.252;2023-02-14T03:29:17;13.63;;;7.77;;
9260;SDS011;4667;42.726;23.252;2023-02-14T03:31:55;11.97;;;7.83;;
9260;SDS011;4667;42.726;23.252;2023-02-14T03:34:28;11.00;;;8.27;;
9260;SDS011;4667;42.726;23.252;2023-02-14T03:37:00;14.53;;;9.40;;
9260;SDS011;4667;42.726;23.252;2023-02-14T03:39:34;8.93;;;7.27;;
9260;SDS011;4667;42.726;23.252;2023-02-14T03:42:07;14.27;;;7.97;;
9260;SDS011;4667;42.726;23.252;2023-02-14T03:44:38;11.23;;;7.80;;
9260;SDS011;4667;42.726;23.252;2023-02-14T03:47:08;13.40;;;8.23;;
9260;SDS011;4667;42.726;23.252;2023-02-14T03:49:38;9.43;;;7.13;;
9260;SDS011;4667;42.726;23.252;2023-02-14T03:52:09;13.83;;;7.97;;
9260;SDS011;4667;42.726;23.252;2023-02-14T03:54:39;13.00;;;8.07;;
9260;SDS011;4667;42.726;23.252;2023-02-14T03:57:10;10.33;;;6.57;;
9260;SDS011;4667;42.726;23.252;2023-02-14T03:59:40;15.10;;;8.37;;
9260;SDS011;4667;42.726;23.252;2023-02-14T04:02:09;14.63;;;8.87;;
9260;SDS011;4667;42.726;23.252;2023-02-14T04:04:41;12.47;;;7.97;;
9260;SDS011;4667;42.726;23.252;2023-02-14T04:07:13;11.83;;;8.47;;
9260;SDS011;4667;42.726;23.252;2023-02-14T04:09:43;13.30;;;8.53;;
9260;SDS011;4667;42.726;23.252;2023-02-14T04:12:10;11.17;;;8.37;;
9260;SDS011;4667;42.726;23.252;2023-02-14T04:14:37;12.60;;;8.17;;
9260;SDS011;4667;42.726;23.252;2023-02-14T04:17:05;14.00;;;8.73;;
9260;SDS011;4667;42.726;23.252;2023-02-14T04:19:49;13.40;;;8.63;;
9260;SDS011;4667;42.726;23.252;2023-02-14T04:22:16;15.30;;;7.93;;
9260;SDS011;4667;42.726;23.252;2023-02-14T04:24:47;7.80;;;5.37;;
9260;SDS011;4667;42.726;23.252;2023-02-14T04:27:14;14.40;;;8.10;;
9260;SDS011;4667;42.726;23.252;2023-02-14T04:29:41;9.50;;;6.93;;
9260;SDS011;4667;42.726;23.252;2023-02-14T04:32:10;17.00;;;8.23;;
9260;SDS011;4667;42.726;23.252;2023-02-14T04:34:39;8.83;;;6.73;;
9260;SDS011;4667;42.726;23.252;2023-02-14T04:37:06;8.87;;;6.33;;
9260;SDS011;4667;42.726;23.252;2023-02-14T04:39:33;20.93;;;8.63;;
9260;SDS011;4667;42.726;23.252;2023-02-14T04:42:05;12.93;;;6.23;;
9260;SDS011;4667;42.726;23.252;2023-02-14T04:44:37;10.80;;;6.10;;
9260;SDS011;4667;42.726;23.252;2023-02-14T04:47:05;8.03;;;5.93;;
9260;SDS011;4667;42.726;23.252;2023-02-14T04:49:34;9.83;;;7.90;;
9260;SDS011;4667;42.726;23.252;2023-02-14T04:52:01;16.77;;;7.23;;
9260;SDS011;4667;42.726;23.252;2023-02-14T04:54:28;12.97;;;6.90;;
9260;SDS011;4667;42.726;23.252;2023-02-14T04:56:55;8.97;;;6.73;;
9260;SDS011;4667;42.726;23.252;2023-02-14T04:59:23;9.47;;;7.07;;
9260;SDS011;4667;42.726;23.252;2023-02-14T05:01:50;11.80;;;6.50;;
9260;SDS011;4667;42.726;23.252;2023-02-14T05:04:17;11.10;;;7.60;;
9260;SDS011;4667;42.726;23.252;2023-02-14T05:06:44;12.10;;;7.93;;
9260;SDS011;4667;42.726;23.252;2023-02-14T05:09:12;9.20;;;6.20;;
9260;SDS011;4667;42.726;23.252;2023-02-14T05:11:42;10.90;;;7.17;;
9260;SDS011;4667;42.726;23.252;2023-02-14T05:14:08;10.70;;;7.13;;
9260;SDS011;4667;42.726;23.252;2023-02-14T05:16:37;12.33;;;7.33;;
9260;SDS011;4667;42.726;23.252;2023-02-14T05:19:09;11.83;;;7.03;;
9260;SDS011;4667;42.726;23.252;2023-02-14T05:21:37;8.43;;;5.73;;
9260;SDS011;4667;42.726;23.252;2023-02-14T05:24:04;11.40;;;6.97;;
9260;SDS011;4667;42.726;23.252;2023-02-14T05:26:31;8.97;;;6.57;;
9260;SDS011;4667;42.726;23.252;2023-02-14T05:28:58;10.83;;;7.93;;
9260;SDS011;4667;42.726;23.252;2023-02-14T05:31:27;8.83;;;5.47;;
9260;SDS011;4667;42.726;23.252;2023-02-14T05:33:57;14.00;;;6.10;;
9260;SDS011;4667;42.726;23.252;2023-02-14T05:36:25;7.23;;;4.93;;
9260;SDS011;4667;42.726;23.252;2023-02-14T05:38:51;10.60;;;7.23;;
9260;SDS011;4667;42.726;23.252;2023-02-14T05:41:18;9.13;;;6.20;;
9260;SDS011;4667;42.726;23.252;2023-02-14T05:43:45;8.70;;;6.93;;
9260;SDS011;4667;42.726;23.252;2023-02-14T05:46:12;10.90;;;6.93;;
9260;SDS011;4667;42.726;23.252;2023-02-14T05:48:39;10.53;;;7.00;;
9260;SDS011;4667;42.726;23.252;2023-02-14T05:51:08;9.70;;;6.37;;
9260;SDS011;4667;42.726;23.252;2023-02-14T05:53:39;11.90;;;6.53;;
9260;SDS011;4667;42.726;23.252;2023-02-14T05:56:19;6.67;;;5.50;;
9260;SDS011;4667;42.726;23.252;2023-02-14T05:59:00;11.30;;;6.50;;
9260;SDS011;4667;42.726;23.252;2023-02-14T06:01:42;11.33;;;6.30;;
9260;SDS011;4667;42.726;23.252;2023-02-14T06:04:09;8.87;;;5.73;;
9260;SDS011;4667;42.726;23.252;2023-02-14T06:06:37;11.43;;;6.37;;
9260;SDS011;4667;42.726;23.252;2023-02-14T06:09:04;8.23;;;6.07;;
9260;SDS011;4667;42.726;23.252;2023-02-14T06:11:31;10.20;;;6.13;;
9260;SDS011;4667;42.726;23.252;2023-02-14T06:13:58;10.53;;;7.37;;
9260;SDS011;4667;42.726;23.252;2023-02-14T06:16:25;12.07;;;7.93;;
9260;SDS011;4667;42.726;23.252;2023-02-14T06:18:52;12.30;;;7.87;;
9260;SDS011;4667;42.726;23.252;2023-02-14T06:21:18;14.38;;;9.52;;
9260;SDS011;4667;42.726;23.252;2023-02-14T06:23:49;9.70;;;6.30;;
9260;SDS011;4667;42.726;23.252;2023-02-14T06:26:16;10.83;;;6.30;;
9260;SDS011;4667;42.726;23.252;2023-02-14T06:28:43;9.10;;;6.00;;
9260;SDS011;4667;42.726;23.252;2023-02-14T06:31:13;13.57;;;7.73;;
9260;SDS011;4667;42.726;23.252;2023-02-14T06:33:41;14.53;;;8.33;;
9260;SDS011;4667;42.726;23.252;2023-02-14T06:36:09;15.43;;;8.00;;
9260;SDS011;4667;42.726;23.252;2023-02-14T06:38:36;8.90;;;6.37;;
9260;SDS011;4667;42.726;23.252;2023-02-14T06:41:05;9.70;;;6.80;;
9260;SDS011;4667;42.726;23.252;2023-02-14T06:43:33;10.60;;;6.77;;
9260;SDS011;4667;42.726;23.252;2023-02-14T06:46:00;12.90;;;8.17;;
9260;SDS011;4667;42.726;23.252;2023-02-14T06:48:28;12.00;;;7.67;;
9260;SDS011;4667;42.726;23.252;2023-02-14T06:50:55;17.83;;;7.33;;
9260;SDS011;4667;42.726;23.252;2023-02-14T06:53:22;12.20;;;8.37;;
9260;SDS011;4667;42.726;23.252;2023-02-14T06:55:49;22.20;;;9.97;;
9260;SDS011;4667;42.726;23.252;2023-02-14T06:58:17;25.27;;;10.10;;
9260;SDS011;4667;42.726;23.252;2023-02-14T07:00:50;28.73;;;11.83;;
9260;SDS011;4667;42.726;23.252;2023-02-14T07:03:19;24.47;;;9.73;;
9260;SDS011;4667;42.726;23.252;2023-02-14T07:05:46;14.30;;;8.60;;
9260;SDS011;4667;42.726;23.252;2023-02-14T07:08:13;16.87;;;8.97;;
9260;SDS011;4667;42.726;23.252;2023-02-14T07:10:43;17.10;;;9.40;;
9260;SDS011;4667;42.726;23.252;2023-02-14T07:13:10;12.83;;;8.73;;
9260;SDS011;4667;42.726;23.252;2023-02-14T07:15:38;17.70;;;8.53;;
9260;SDS011;4667;42.726;23.252;2023-02-14T07:18:07;14.80;;;7.43;;
9260;SDS011;4667;42.726;23.252;2023-02-14T07:20:37;14.33;;;8.97;;
9260;SDS011;4667;42.726;23.252;2023-02-14T07:23:03;16.10;;;8.60;;
9260;SDS011;4667;42.726;23.252;2023-02-14T07:25:30;12.93;;;8.20;;
9260;SDS011;4667;42.726;23.252;2023-02-14T07:27:58;12.83;;;7.30;;
9260;SDS011;4667;42.726;23.252;2023-02-14T07:30:26;13.10;;;7.90;;
9260;SDS011;4667;42.726;23.252;2023-02-14T07:32:54;12.23;;;8.00;;
9260;SDS011;4667;42.726;23.252;2023-02-14T07:35:22;14.77;;;7.70;;
9260;SDS011;4667;42.726;23.252;2023-02-14T07:37:49;11.33;;;7.37;;
9260;SDS011;4667;42.726;23.252;2023-02-14T07:40:16;15.60;;;8.20;;
9260;SDS011;4667;42.726;23.252;2023-02-14T07:42:47;13.97;;;8.07;;
9260;SDS011;4667;42.726;23.252;2023-02-14T07:45:18;16.40;;;9.50;;
9260;SDS011;4667;42.726;23.252;2023-02-14T07:47:46;12.20;;;8.17;;
9260;SDS011;4667;42.726;23.252;2023-02-14T07:50:15;10.77;;;7.33;;
9260;SDS011;4667;42.726;23.252;2023-02-14T07:52:42;12.07;;;6.77;;
9260;SDS011;4667;42.726;23.252;2023-02-14T07:55:09;11.90;;;9.03;;
9260;SDS011;4667;42.726;23.252;2023-02-14T07:57:37;10.13;;;8.00;;
9260;SDS011;4667;42.726;23.252;2023-02-14T08:00:04;13.90;;;8.40;;
9260;SDS011;4667;42.726;23.252;2023-02-14T08:02:32;10.60;;;7.47;;
9260;SDS011;4667;42.726;23.252;2023-02-14T08:04:59;15.03;;;8.70;;
9260;SDS011;4667;42.726;23.252;2023-02-14T08:07:27;13.50;;;8.43;;
9260;SDS011;4667;42.726;23.252;2023-02-14T08:09:54;12.10;;;8.50;;
9260;SDS011;4667;42.726;23.252;2023-02-14T08:12:21;15.23;;;9.10;;
9260;SDS011;4667;42.726;23.252;2023-02-14T08:15:08;17.53;;;9.67;;
9260;SDS011;4667;42.726;23.252;2023-02-14T08:17:52;13.23;;;7.60;;
9260;SDS011;4667;42.726;23.252;2023-02-14T08:20:21;11.33;;;6.97;;
9260;SDS011;4667;42.726;23.252;2023-02-14T08:22:52;14.87;;;7.80;;
9260;SDS011;4667;42.726;23.252;2023-02-14T08:25:19;14.97;;;8.37;;
9260;SDS011;4667;42.726;23.252;2023-02-14T08:27:46;13.37;;;7.97;;
9260;SDS011;4667;42.726;23.252;2023-02-14T08:30:19;13.90;;;6.83;;
9260;SDS011;4667;42.726;23.252;2023-02-14T08:32:49;12.20;;;6.80;;
9260;SDS011;4667;42.726;23.252;2023-02-14T08:35:17;13.60;;;8.13;;
9260;SDS011;4667;42.726;23.252;2023-02-14T08:37:48;17.17;;;7.97;;
9260;SDS011;4667;42.726;23.252;2023-02-14T08:40:24;12.67;;;7.13;;
9260;SDS011;4667;42.726;23.252;2023-02-14T08:42:51;14.97;;;7.77;;
9260;SDS011;4667;42.726;23.252;2023-02-14T08:45:24;7.83;;;5.70;;
9260;SDS011;4667;42.726;23.252;2023-02-14T08:47:50;17.33;;;7.53;;
9260;SDS011;4667;42.726;23.252;2023-02-14T08:50:18;8.97;;;6.63;;
9260;SDS011;4667;42.726;23.252;2023-02-14T08:52:45;10.13;;;7.17;;
9260;SDS011;4667;42.726;23.252;2023-02-14T08:55:14;11.73;;;7.07;;
9260;SDS011;4667;42.726;23.252;2023-02-14T08:57:43;15.07;;;7.97;;
9260;SDS011;4667;42.726;23.252;2023-02-14T09:00:13;11.40;;;8.70;;
9260;SDS011;4667;42.726;23.252;2023-02-14T09:02:41;13.47;;;8.03;;
9260;SDS011;4667;42.726;23.252;2023-02-14T09:05:08;13.00;;;7.60;;
9260;SDS011;4667;42.726;23.252;2023-02-14T09:07:38;9.63;;;7.37;;
9260;SDS011;4667;42.726;23.252;2023-02-14T09:10:06;17.80;;;8.00;;
9260;SDS011;4667;42.726;23.252;2023-02-14T09:12:37;13.77;;;7.40;;
9260;SDS011;4667;42.726;23.252;2023-02-14T09:15:06;14.27;;;8.07;;
9260;SDS011;4667;42.726;23.252;2023-02-14T09:17:34;12.77;;;6.57;;
9260;SDS011;4667;42.726;23.252;2023-02-14T09:20:01;11.03;;;7.00;;
9260;SDS011;4667;42.726;23.252;2023-02-14T09:22:29;12.33;;;6.47;;
9260;SDS011;4667;42.726;23.252;2023-02-14T09:24:56;12.50;;;6.33;;
9260;SDS011;4667;42.726;23.252;2023-02-14T09:27:23;11.17;;;5.87;;
9260;SDS011;4667;42.726;23.252;2023-02-14T09:29:56;18.27;;;9.50;;
9260;SDS011;4667;42.726;23.252;2023-02-14T09:32:25;12.43;;;7.30;;
9260;SDS011;4667;42.726;23.252;2023-02-14T09:34:53;11.03;;;6.20;;
9260;SDS011;4667;42.726;23.252;2023-02-14T09:37:20;15.43;;;8.87;;
9260;SDS011;4667;42.726;23.252;2023-02-14T09:40:04;14.40;;;8.57;;
9260;SDS011;4667;42.726;23.252;2023-02-14T09:42:35;13.63;;;9.03;;
9260;SDS011;4667;42.726;23.252;2023-02-14T09:45:22;11.33;;;7.63;;
9260;SDS011;4667;42.726;23.252;2023-02-14T09:51:01;12.40;;;5.93;;
9260;SDS011;4667;42.726;23.252;2023-02-14T09:53:31;12.43;;;8.83;;
9260;SDS011;4667;42.726;23.252;2023-02-14T09:56:03;13.43;;;8.27;;
9260;SDS011;4667;42.726;23.252;2023-02-14T09:58:37;17.10;;;8.60;;
9260;SDS011;4667;42.726;23.252;2023-02-14T10:01:17;13.37;;;7.80;;
9260;SDS011;4667;42.726;23.252;2023-02-14T10:04:06;16.40;;;8.97;;
9260;SDS011;4667;42.726;23.252;2023-02-14T10:06:47;11.53;;;7.27;;
9260;SDS011;4667;42.726;23.252;2023-02-14T10:09:20;7.67;;;5.63;;
9260;SDS011;4667;42.726;23.252;2023-02-14T10:12:07;10.50;;;6.60;;
9260;SDS011;4667;42.726;23.252;2023-02-14T10:14:47;13.43;;;7.93;;
9260;SDS011;4667;42.726;23.252;2023-02-14T10:17:23;10.40;;;6.23;;
9260;SDS011;4667;42.726;23.252;2023-02-14T10:20:13;16.20;;;5.20;;
9260;SDS011;4667;42.726;23.252;2023-02-14T10:22:51;10.30;;;6.40;;
9260;SDS011;4667;42.726;23.252;2023-02-14T10:25:28;15.13;;;6.57;;
9260;SDS011;4667;42.726;23.252;2023-02-14T10:28:04;8.57;;;7.63;;
9260;SDS011;4667;42.726;23.252;2023-02-14T10:30:40;9.87;;;5.80;;
9260;SDS011;4667;42.726;23.252;2023-02-14T10:33:20;10.30;;;6.60;;
9260;SDS011;4667;42.726;23.252;2023-02-14T10:35:56;11.13;;;6.10;;
9260;SDS011;4667;42.726;23.252;2023-02-14T10:38:32;10.23;;;5.90;;
9260;SDS011;4667;42.726;23.252;2023-02-14T10:43:57;9.83;;;6.07;;
9260;SDS011;4667;42.726;23.252;2023-02-14T10:46:48;10.50;;;6.73;;
9260;SDS011;4667;42.726;23.252;2023-02-14T10:49:31;7.67;;;5.70;;
9260;SDS011;4667;42.726;23.252;2023-02-14T10:52:10;10.03;;;6.43;;
9260;SDS011;4667;42.726;23.252;2023-02-14T10:54:51;5.60;;;4.57;;
9260;SDS011;4667;42.726;23.252;2023-02-14T10:57:23;10.27;;;5.90;;
9260;SDS011;4667;42.726;23.252;2023-02-14T10:59:57;10.53;;;6.30;;
9260;SDS011;4667;42.726;23.252;2023-02-14T11:02:29;9.70;;;6.87;;
9260;SDS011;4667;42.726;23.252;2023-02-14T11:05:04;10.07;;;6.27;;
9260;SDS011;4667;42.726;23.252;2023-02-14T11:07:33;7.47;;;5.33;;
9260;SDS011;4667;42.726;23.252;2023-02-14T11:10:00;8.50;;;4.57;;
9260;SDS011;4667;42.726;23.252;2023-02-14T11:12:31;5.97;;;4.87;;
9260;SDS011;4667;42.726;23.252;2023-02-14T11:15:18;13.20;;;5.67;;
9260;SDS011;4667;42.726;23.252;2023-02-14T11:17:54;8.90;;;6.50;;
9260;SDS011;4667;42.726;23.252;2023-02-14T11:20:34;11.60;;;5.37;;
9260;SDS011;4667;42.726;23.252;2023-02-14T11:26:00;5.93;;;5.03;;
9260;SDS011;4667;42.726;23.252;2023-02-14T11:28:32;10.37;;;5.90;;
9260;SDS011;4667;42.726;23.252;2023-02-14T11:31:02;6.80;;;5.17;;
9260;SDS011;4667;42.726;23.252;2023-02-14T11:33:33;8.23;;;5.30;;
9260;SDS011;4667;42.726;23.252;2023-02-14T11:36:03;5.47;;;4.20;;
9260;SDS011;4667;42.726;23.252;2023-02-14T11:38:35;6.83;;;4.60;;
9260;SDS011;4667;42.726;23.252;2023-02-14T11:41:06;6.87;;;4.63;;
9260;SDS011;4667;42.726;23.252;2023-02-14T11:43:38;8.27;;;5.43;;
9260;SDS011;4667;42.726;23.252;2023-02-14T11:46:09;9.43;;;5.07;;
9260;SDS011;4667;42.726;23.252;2023-02-14T11:48:52;5.43;;;4.40;;
9260;SDS011;4667;42.726;23.252;2023-02-14T11:51:27;6.23;;;5.37;;
9260;SDS011;4667;42.726;23.252;2023-02-14T11:53:57;10.13;;;5.20;;
9260;SDS011;4667;42.726;23.252;2023-02-14T11:59:29;6.00;;;4.53;;
9260;SDS011;4667;42.726;23.252;2023-02-14T12:01:59;5.70;;;4.53;;
9260;SDS011;4667;42.726;23.252;2023-02-14T12:04:32;5.60;;;4.93;;
9260;SDS011;4667;42.726;23.252;2023-02-14T12:07:15;5.60;;;4.27;;
9260;SDS011;4667;42.726;23.252;2023-02-14T12:13:01;12.70;;;4.57;;
9260;SDS011;4667;42.726;23.252;2023-02-14T12:15:55;5.07;;;4.60;;
9260;SDS011;4667;42.726;23.252;2023-02-14T12:21:47;5.77;;;4.93;;
9260;SDS011;4667;42.726;23.252;2023-02-14T12:24:39;8.17;;;4.40;;
9260;SDS011;4667;42.726;23.252;2023-02-14T12:43:11;6.50;;;5.03;;
9260;SDS011;4667;42.726;23.252;2023-02-14T12:46:12;6.97;;;5.37;;
9260;SDS011;4667;42.726;23.252;2023-02-14T13:04:46;8.70;;;5.70;;
9260;SDS011;4667;42.726;23.252;2023-02-14T13:07:22;8.93;;;6.10;;
9260;SDS011;4667;42.726;23.252;2023-02-14T13:10:07;8.47;;;5.23;;
9260;SDS011;4667;42.726;23.252;2023-02-14T13:12:43;12.33;;;5.03;;
9260;SDS011;4667;42.726;23.252;2023-02-14T13:15:18;6.37;;;5.30;;
9260;SDS011;4667;42.726;23.252;2023-02-14T13:17:52;7.90;;;5.67;;
9260;SDS011;4667;42.726;23.252;2023-02-14T13:23:01;10.77;;;6.03;;
9260;SDS011;4667;42.726;23.252;2023-02-14T13:25:31;7.90;;;6.17;;
9260;SDS011;4667;42.726;23.252;2023-02-14T13:28:16;7.53;;;5.07;;
9260;SDS011;4667;42.726;23.252;2023-02-14T13:30:50;11.30;;;6.60;;
9260;SDS011;4667;42.726;23.252;2023-02-14T13:33:22;7.73;;;5.60;;
9260;SDS011;4667;42.726;23.252;2023-02-14T13:35:57;11.17;;;5.87;;
9260;SDS011;4667;42.726;23.252;2023-02-14T13:38:26;7.13;;;4.83;;
9260;SDS011;4667;42.726;23.252;2023-02-14T13:40:58;9.60;;;6.07;;
9260;SDS011;4667;42.726;23.252;2023-02-14T13:43:50;7.57;;;5.20;;
9260;SDS011;4667;42.726;23.252;2023-02-14T13:46:20;8.37;;;5.63;;
9260;SDS011;4667;42.726;23.252;2023-02-14T13:49:20;8.30;;;5.37;;
9260;SDS011;4667;42.726;23.252;2023-02-14T13:55:14;6.73;;;4.93;;
9260;SDS011;4667;42.726;23.252;2023-02-14T13:58:05;11.03;;;6.83;;
9260;SDS011;4667;42.726;23.252;2023-02-14T14:00:42;9.43;;;6.57;;
9260;SDS011;4667;42.726;23.252;2023-02-14T14:03:14;8.57;;;6.57;;
9260;SDS011;4667;42.726;23.252;2023-02-14T14:06:05;8.17;;;5.47;;
9260;SDS011;4667;42.726;23.252;2023-02-14T14:08:37;10.20;;;6.17;;
9260;SDS011;4667;42.726;23.252;2023-02-14T14:11:09;6.60;;;4.90;;
9260;SDS011;4667;42.726;23.252;2023-02-14T14:13:55;8.20;;;5.93;;
9260;SDS011;4667;42.726;23.252;2023-02-14T14:16:26;8.93;;;5.43;;
9260;SDS011;4667;42.726;23.252;2023-02-14T14:18:57;9.33;;;6.43;;
9260;SDS011;4667;42.726;23.252;2023-02-14T14:21:27;7.17;;;5.70;;
9260;SDS011;4667;42.726;23.252;2023-02-14T14:26:48;6.07;;;4.20;;
9260;SDS011;4667;42.726;23.252;2023-02-14T14:29:19;8.47;;;4.77;;
9260;SDS011;4667;42.726;23.252;2023-02-14T14:31:54;6.73;;;5.27;;
9260;SDS011;4667;42.726;23.252;2023-02-14T14:34:23;8.37;;;5.40;;
9260;SDS011;4667;42.726;23.252;2023-02-14T14:36:59;7.00;;;5.63;;
9260;SDS011;4667;42.726;23.252;2023-02-14T14:39:28;9.33;;;5.80;;
9260;SDS011;4667;42.726;23.252;2023-02-14T14:42:05;7.37;;;5.30;;
9260;SDS011;4667;42.726;23.252;2023-02-14T14:44:43;9.40;;;5.83;;
9260;SDS011;4667;42.726;23.252;2023-02-14T14:47:45;7.23;;;4.93;;
9260;SDS011;4667;42.726;23.252;2023-02-14T14:50:30;5.73;;;5.10;;
9260;SDS011;4667;42.726;23.252;2023-02-14T14:53:01;5.73;;;5.17;;
9260;SDS011;4667;42.726;23.252;2023-02-14T14:55:32;9.37;;;5.77;;
9260;SDS011;4667;42.726;23.252;2023-02-14T14:58:10;9.40;;;5.40;;
9260;SDS011;4667;42.726;23.252;2023-02-14T15:00:59;8.33;;;5.87;;
9260;SDS011;4667;42.726;23.252;2023-02-14T15:03:33;11.77;;;5.67;;
9260;SDS011;4667;42.726;23.252;2023-02-14T15:06:13;14.17;;;6.40;;
9260;SDS011;4667;42.726;23.252;2023-02-14T15:09:22;6.70;;;5.17;;
9260;SDS011;4667;42.726;23.252;2023-02-14T15:12:07;9.23;;;5.40;;
9260;SDS011;4667;42.726;23.252;2023-02-14T15:14:53;8.33;;;5.13;;
9260;SDS011;4667;42.726;23.252;2023-02-14T15:17:26;9.30;;;6.87;;
9260;SDS011;4667;42.726;23.252;2023-02-14T15:19:59;6.70;;;5.57;;
9260;SDS011;4667;42.726;23.252;2023-02-14T15:22:37;7.97;;;5.27;;
9260;SDS011;4667;42.726;23.252;2023-02-14T15:25:08;7.87;;;5.93;;
9260;SDS011;4667;42.726;23.252;2023-02-14T15:27:38;11.37;;;6.53;;
9260;SDS011;4667;42.726;23.252;2023-02-14T15:30:07;12.17;;;6.47;;
9260;SDS011;4667;42.726;23.252;2023-02-14T15:32:49;13.53;;;7.00;;
9260;SDS011;4667;42.726;23.252;2023-02-14T15:35:20;9.00;;;5.57;;
9260;SDS011;4667;42.726;23.252;2023-02-14T15:37:50;11.27;;;5.47;;
9260;SDS011;4667;42.726;23.252;2023-02-14T15:40:19;7.87;;;5.07;;
9260;SDS011;4667;42.726;23.252;2023-02-14T15:42:48;9.10;;;5.93;;
9260;SDS011;4667;42.726;23.252;2023-02-14T15:45:21;8.03;;;5.07;;
9260;SDS011;4667;42.726;23.252;2023-02-14T15:47:49;10.63;;;5.93;;
9260;SDS011;4667;42.726;23.252;2023-02-14T15:50:18;10.83;;;5.50;;
9260;SDS011;4667;42.726;23.252;2023-02-14T15:52:49;7.10;;;5.37;;
9260;SDS011;4667;42.726;23.252;2023-02-14T15:55:21;10.43;;;4.87;;
9260;SDS011;4667;42.726;23.252;2023-02-14T15:57:52;7.80;;;5.83;;
9260;SDS011;4667;42.726;23.252;2023-02-14T16:00:21;8.90;;;6.57;;
9260;SDS011;4667;42.726;23.252;2023-02-14T16:02:51;7.67;;;5.10;;
9260;SDS011;4667;42.726;23.252;2023-02-14T16:05:23;7.27;;;5.20;;
9260;SDS011;4667;42.726;23.252;2023-02-14T16:07:55;5.97;;;5.33;;
9260;SDS011;4667;42.726;23.252;2023-02-14T16:10:23;6.43;;;4.77;;
9260;SDS011;4667;42.726;23.252;2023-02-14T16:12:58;8.13;;;5.27;;
9260;SDS011;4667;42.726;23.252;2023-02-14T16:15:27;6.93;;;4.60;;
9260;SDS011;4667;42.726;23.252;2023-02-14T16:17:55;12.70;;;6.27;;
9260;SDS011;4667;42.726;23.252;2023-02-14T16:20:35;9.50;;;6.20;;
9260;SDS011;4667;42.726;23.252;2023-02-14T16:23:19;7.13;;;4.57;;
9260;SDS011;4667;42.726;23.252;2023-02-14T16:25:50;7.37;;;5.23;;
9260;SDS011;4667;42.726;23.252;2023-02-14T16:28:21;8.20;;;5.63;;